createdAt,value
2022-11-29T00:00:37.400Z,12.65
2022-11-29T00:03:03.927Z,13.15
2022-11-29T00:05:33.487Z,13.05
2022-11-29T00:07:59.855Z,12.32
2022-11-29T00:10:26.225Z,10.90
2022-11-29T00:12:52.563Z,11.65
2022-11-29T00:15:18.920Z,11.45
2022-11-29T00:17:45.320Z,13.40
2022-11-29T00:20:12.280Z,10.95
2022-11-29T00:22:39.843Z,12.53
2022-11-29T00:25:07.440Z,11.82
2022-11-29T00:27:33.810Z,10.27
2022-11-29T00:30:00.332Z,12.18
2022-11-29T00:32:26.739Z,11.15
2022-11-29T00:34:53.152Z,10.10
2022-11-29T00:37:19.538Z,9.70
2022-11-29T00:39:45.879Z,8.98
2022-11-29T00:42:12.282Z,7.93
2022-11-29T00:44:38.624Z,9.93
2022-11-29T00:47:05.027Z,10.53
2022-11-29T00:49:31.413Z,8.68
2022-11-29T00:51:57.825Z,9.93
2022-11-29T00:54:24.264Z,11.02
2022-11-29T00:56:50.617Z,8.48
2022-11-29T00:59:16.979Z,11.70
2022-11-29T01:01:43.458Z,10.93
2022-11-29T01:04:09.909Z,10.85
2022-11-29T01:06:36.295Z,8.85
2022-11-29T01:09:03.509Z,16.10
2022-11-29T01:11:29.906Z,10.50
2022-11-29T01:13:59.927Z,14.82
2022-11-29T01:16:27.500Z,15.65
2022-11-29T01:18:53.967Z,17.20
2022-11-29T01:21:23.142Z,16.75
2022-11-29T01:23:51.529Z,16.80
2022-11-29T01:26:21.099Z,18.42
2022-11-29T01:28:49.901Z,17.95
2022-11-29T01:31:23.188Z,13.68
2022-11-29T01:33:56.581Z,18.08
2022-11-29T01:36:23.970Z,17.17
2022-11-29T01:38:50.414Z,14.48
2022-11-29T01:41:23.472Z,19.15
2022-11-29T01:43:54.782Z,18.58
2022-11-29T01:46:21.186Z,18.05
2022-11-29T01:48:49.112Z,16.83
2022-11-29T01:51:15.739Z,17.90
2022-11-29T01:53:42.128Z,19.23
2022-11-29T01:56:10.279Z,18.25
2022-11-29T01:58:36.819Z,20.17
2022-11-29T02:01:03.223Z,22.23
2022-11-29T02:03:29.625Z,18.05
2022-11-29T02:05:56.108Z,18.73
2022-11-29T02:08:31.387Z,16.95
2022-11-29T02:11:20.713Z,19.15
2022-11-29T02:14:05.224Z,20.37
2022-11-29T02:16:37.551Z,21.85
2022-11-29T02:19:53.314Z,17.23
2022-11-29T02:22:32.441Z,18.15
2022-11-29T02:25:22.062Z,21.40
2022-11-29T02:28:09.671Z,17.50
2022-11-29T02:30:58.274Z,18.85
2022-11-29T02:33:43.397Z,17.73
2022-11-29T02:36:23.721Z,18.77
2022-11-29T02:39:08.788Z,17.73
2022-11-29T02:42:27.107Z,21.37
2022-11-29T02:45:18.785Z,16.52
2022-11-29T02:48:00.085Z,18.50
2022-11-29T02:50:43.868Z,20.00
2022-11-29T02:53:19.796Z,19.70
2022-11-29T02:56:01.501Z,17.20
2022-11-29T02:58:37.651Z,17.48
2022-11-29T03:01:15.648Z,22.00
2022-11-29T03:04:00.171Z,20.08
2022-11-29T03:06:47.903Z,16.20
2022-11-29T03:09:54.544Z,19.57
2022-11-29T03:12:40.111Z,19.08
2022-11-29T03:15:28.006Z,16.58
2022-11-29T03:18:41.735Z,18.67
2022-11-29T03:21:22.869Z,20.08
2022-11-29T03:23:59.729Z,16.63
2022-11-29T03:26:40.316Z,24.02
2022-11-29T03:29:16.212Z,22.00
2022-11-29T03:31:52.676Z,27.08
2022-11-29T03:34:37.777Z,22.05
2022-11-29T03:37:14.532Z,20.73
2022-11-29T03:40:05.802Z,21.65
2022-11-29T03:42:38.198Z,21.90
2022-11-29T03:45:11.195Z,19.48
2022-11-29T03:47:51.250Z,19.90
2022-11-29T03:50:24.995Z,23.37
2022-11-29T03:53:01.816Z,24.88
2022-11-29T03:55:57.042Z,21.30
2022-11-29T03:58:38.683Z,24.55
2022-11-29T04:01:29.287Z,23.33
2022-11-29T04:04:20.076Z,19.57
2022-11-29T04:07:20.497Z,24.15
2022-11-29T04:10:01.917Z,18.13
2022-11-29T04:12:37.927Z,16.88
2022-11-29T04:15:38.542Z,18.45
2022-11-29T04:18:41.762Z,17.43
2022-11-29T04:21:20.979Z,17.45
2022-11-29T04:23:59.672Z,24.23
2022-11-29T04:26:56.827Z,19.88
2022-11-29T04:29:54.390Z,20.77
2022-11-29T04:32:41.421Z,16.63
2022-11-29T04:35:28.479Z,17.83
2022-11-29T04:38:25.906Z,16.20
2022-11-29T04:40:55.340Z,13.07
2022-11-29T04:43:39.919Z,16.98
2022-11-29T04:46:38.290Z,12.70
2022-11-29T04:49:25.699Z,14.43
2022-11-29T04:52:13.229Z,15.43
2022-11-29T04:54:54.204Z,14.00
2022-11-29T04:57:39.978Z,16.38
2022-11-29T05:00:12.512Z,16.07
2022-11-29T05:03:04.488Z,15.30
2022-11-29T05:05:45.565Z,20.73
2022-11-29T05:08:17.445Z,15.15
2022-11-29T05:11:06.106Z,15.07
2022-11-29T05:13:53.929Z,15.57
2022-11-29T05:16:20.302Z,16.77
2022-11-29T05:18:58.772Z,17.20
2022-11-29T05:21:50.985Z,17.50
2022-11-29T05:24:22.422Z,16.85
2022-11-29T05:27:07.582Z,16.97
2022-11-29T05:29:43.200Z,19.23
2022-11-29T05:32:33.639Z,16.63
2022-11-29T05:35:18.418Z,16.50
2022-11-29T05:37:54.770Z,16.45
2022-11-29T05:40:40.581Z,17.53
2022-11-29T05:43:24.378Z,18.58
2022-11-29T05:46:12.748Z,17.30
2022-11-29T05:49:06.042Z,15.98
2022-11-29T05:52:17.422Z,18.38
2022-11-29T05:54:59.185Z,16.63
2022-11-29T05:57:50.029Z,19.08
2022-11-29T06:00:18.899Z,19.50
2022-11-29T06:02:57.380Z,21.10
2022-11-29T06:05:34.775Z,19.85
2022-11-29T06:08:07.069Z,19.77
2022-11-29T06:10:40.088Z,17.75
2022-11-29T06:13:35.023Z,18.48
2022-11-29T06:16:28.190Z,18.67
2022-11-29T06:19:34.329Z,18.70
2022-11-29T06:22:26.727Z,20.57
2022-11-29T06:25:08.051Z,17.45
2022-11-29T06:27:35.238Z,18.33
2022-11-29T06:30:11.624Z,16.15
2022-11-29T06:33:18.806Z,19.38
2022-11-29T06:36:09.190Z,20.67
2022-11-29T06:38:35.864Z,20.70
2022-11-29T06:41:02.653Z,21.17
2022-11-29T06:43:30.139Z,20.58
2022-11-29T06:46:04.275Z,20.67
2022-11-29T06:48:38.467Z,19.97
2022-11-29T06:51:37.387Z,20.55
2022-11-29T06:54:19.318Z,18.83
2022-11-29T06:57:32.006Z,17.88
2022-11-29T07:00:20.371Z,22.13
2022-11-29T07:02:58.689Z,22.23
2022-11-29T07:05:29.103Z,18.88
2022-11-29T07:07:58.369Z,21.30
2022-11-29T07:10:25.747Z,21.77
2022-11-29T07:12:52.415Z,24.23
2022-11-29T07:15:21.571Z,25.47
2022-11-29T07:18:09.850Z,22.00
2022-11-29T07:20:50.506Z,28.50
2022-11-29T07:23:45.691Z,26.60
2022-11-29T07:26:33.763Z,29.00
2022-11-29T07:29:21.940Z,21.67
2022-11-29T07:31:54.338Z,22.48
2022-11-29T07:34:38.840Z,23.23
2022-11-29T07:37:20.403Z,22.58
2022-11-29T07:39:55.087Z,20.83
2022-11-29T07:42:41.946Z,21.87
2022-11-29T07:45:37.827Z,27.15
2022-11-29T07:48:04.897Z,20.38
2022-11-29T07:50:31.736Z,19.02
2022-11-29T07:52:59.471Z,19.38
2022-11-29T07:55:26.894Z,17.77
2022-11-29T07:57:53.353Z,17.42
2022-11-29T08:00:20.383Z,16.88
2022-11-29T08:02:47.764Z,16.02
2022-11-29T08:05:14.150Z,18.05
2022-11-29T08:07:41.659Z,16.10
2022-11-29T08:10:12.876Z,18.20
2022-11-29T08:12:48.293Z,18.33
2022-11-29T08:15:15.048Z,19.17
2022-11-29T08:17:41.580Z,16.25
2022-11-29T08:20:09.785Z,20.57
2022-11-29T08:22:36.264Z,13.98
2022-11-29T08:25:02.958Z,15.02
2022-11-29T08:27:29.659Z,14.43
2022-11-29T08:29:56.035Z,16.90
2022-11-29T08:32:22.467Z,14.17
2022-11-29T08:34:49.024Z,14.88
2022-11-29T08:37:15.396Z,15.93
2022-11-29T08:39:43.896Z,14.57
2022-11-29T08:42:10.271Z,18.45
2022-11-29T08:44:36.650Z,15.07
2022-11-29T08:47:21.761Z,15.65
2022-11-29T08:50:03.076Z,13.57
2022-11-29T08:52:53.670Z,14.15
2022-11-29T08:55:22.580Z,14.13
2022-11-29T08:57:49.891Z,14.20
2022-11-29T09:00:17.319Z,12.80
2022-11-29T09:02:43.940Z,15.80
2022-11-29T09:05:11.417Z,12.63
2022-11-29T09:07:38.478Z,13.73
2022-11-29T09:10:08.212Z,12.23
2022-11-29T09:12:35.961Z,13.40
2022-11-29T09:15:05.048Z,14.15
2022-11-29T09:17:31.603Z,12.48
2022-11-29T09:19:57.998Z,13.52
2022-11-29T09:22:24.412Z,14.37
2022-11-29T09:24:50.836Z,11.77
2022-11-29T09:27:17.267Z,13.70
2022-11-29T09:29:43.635Z,12.98
2022-11-29T09:32:10.113Z,11.98
2022-11-29T09:34:36.772Z,14.87
2022-11-29T09:37:05.354Z,13.27
2022-11-29T09:39:31.830Z,15.65
2022-11-29T09:42:07.441Z,12.85
2022-11-29T09:45:02.142Z,14.73
2022-11-29T09:47:34.511Z,11.13
2022-11-29T09:50:34.899Z,10.68
2022-11-29T09:53:24.938Z,12.50
2022-11-29T09:56:15.861Z,8.85
2022-11-29T09:58:48.110Z,12.00
2022-11-29T10:01:26.165Z,9.97
2022-11-29T10:03:58.229Z,10.10
2022-11-29T10:06:32.724Z,10.60
2022-11-29T10:09:33.336Z,12.98
2022-11-29T10:12:07.231Z,13.20
2022-11-29T10:14:45.874Z,14.23
2022-11-29T10:17:36.672Z,10.75
2022-11-29T10:20:28.877Z,9.70
2022-11-29T10:23:25.772Z,11.52
2022-11-29T10:25:55.387Z,11.20
2022-11-29T10:28:25.797Z,12.80
2022-11-29T10:30:55.408Z,11.95
2022-11-29T10:33:27.108Z,11.38
2022-11-29T10:35:57.572Z,12.13
2022-11-29T10:38:32.107Z,12.10
2022-11-29T10:41:09.766Z,13.33
2022-11-29T10:43:37.393Z,14.63
2022-11-29T10:46:06.967Z,11.60
2022-11-29T10:48:34.216Z,11.52
2022-11-29T10:51:01.482Z,14.98
2022-11-29T10:53:31.991Z,13.97
2022-11-29T10:56:16.795Z,14.95
2022-11-29T10:59:05.285Z,14.38
2022-11-29T11:01:36.990Z,13.48
2022-11-29T11:04:07.325Z,16.13
2022-11-29T11:06:49.518Z,13.10
2022-11-29T11:09:46.975Z,13.77
2022-11-29T11:12:16.387Z,14.40
2022-11-29T11:14:45.243Z,15.27
2022-11-29T11:17:33.702Z,12.48
2022-11-29T11:20:19.629Z,12.03
2022-11-29T11:22:58.591Z,12.55
2022-11-29T11:25:35.139Z,13.02
2022-11-29T11:28:15.405Z,11.32
2022-11-29T11:30:53.959Z,14.20
2022-11-29T11:33:29.758Z,12.40
2022-11-29T11:36:00.630Z,12.38
2022-11-29T11:38:27.391Z,11.35
2022-11-29T11:41:18.250Z,15.27
2022-11-29T11:44:14.987Z,13.18
2022-11-29T11:46:51.856Z,12.87
2022-11-29T11:49:50.284Z,12.73
2022-11-29T11:52:30.029Z,14.23
2022-11-29T11:55:02.882Z,12.15
2022-11-29T11:57:30.332Z,12.25
2022-11-29T12:00:03.439Z,13.73
2022-11-29T12:02:38.967Z,14.25
2022-11-29T12:05:13.838Z,13.52
2022-11-29T12:10:37.581Z,14.48
2022-11-29T12:13:04.803Z,12.67
2022-11-29T12:15:38.528Z,11.63
2022-11-29T12:18:24.604Z,13.82
2022-11-29T12:20:55.873Z,14.20
2022-11-29T12:23:40.267Z,11.20
2022-11-29T12:26:48.549Z,11.80
2022-11-29T12:29:02.741Z,11.02
2022-11-29T12:32:06.521Z,10.40
2022-11-29T12:35:00.992Z,11.75
2022-11-29T12:37:43.057Z,9.50
2022-11-29T12:40:17.897Z,11.73
2022-11-29T12:43:02.087Z,9.13
2022-11-29T12:45:40.897Z,9.23
2022-11-29T12:48:51.698Z,8.27
2022-11-29T12:51:39.878Z,9.10
2022-11-29T12:54:36.623Z,9.30
2022-11-29T12:57:26.949Z,9.60
2022-11-29T13:00:10.650Z,7.18
2022-11-29T13:03:18.954Z,6.90
2022-11-29T13:05:52.115Z,6.82
2022-11-29T13:08:39.844Z,7.97
2022-11-29T13:11:29.290Z,7.97
2022-11-29T13:17:31.942Z,7.22
2022-11-29T13:20:16.371Z,8.43
2022-11-29T13:22:45.764Z,9.63
2022-11-29T13:25:20.806Z,9.43
2022-11-29T13:27:58.896Z,8.93
2022-11-29T13:30:26.164Z,8.75
2022-11-29T13:33:10.702Z,10.98
2022-11-29T13:35:48.002Z,9.83
2022-11-29T13:38:39.248Z,9.18
2022-11-29T13:41:17.012Z,9.38
2022-11-29T13:43:56.549Z,8.38
2022-11-29T13:46:30.785Z,9.05
2022-11-29T13:48:57.396Z,11.40
2022-11-29T13:51:28.773Z,9.75
2022-11-29T13:53:57.347Z,9.10
2022-11-29T13:56:46.341Z,9.90
2022-11-29T13:59:27.784Z,9.48
2022-11-29T14:01:54.682Z,10.47
2022-11-29T14:04:34.559Z,8.93
2022-11-29T14:07:03.835Z,9.02
2022-11-29T14:09:35.204Z,9.88
2022-11-29T14:12:17.077Z,9.15
2022-11-29T14:14:54.133Z,10.20
2022-11-29T14:17:57.308Z,10.55
2022-11-29T14:20:23.675Z,10.93
2022-11-29T14:23:05.079Z,10.23
2022-11-29T14:28:23.106Z,13.10
2022-11-29T14:30:58.245Z,10.77
2022-11-29T14:34:00.256Z,12.55
2022-11-29T14:36:50.331Z,12.40
2022-11-29T14:39:43.995Z,13.35
2022-11-29T14:42:18.342Z,13.93
2022-11-29T14:44:49.312Z,13.50
2022-11-29T14:47:23.986Z,14.80
2022-11-29T14:49:52.915Z,12.35
2022-11-29T14:52:26.449Z,17.63
2022-11-29T14:54:58.952Z,14.77
2022-11-29T14:57:51.174Z,14.35
2022-11-29T15:00:32.366Z,13.82
2022-11-29T15:03:09.778Z,16.20
2022-11-29T15:05:40.356Z,16.63
2022-11-29T15:08:25.088Z,19.67
2022-11-29T15:11:17.821Z,20.33
2022-11-29T15:14:19.098Z,18.08
2022-11-29T15:17:00.777Z,18.48
2022-11-29T15:19:35.862Z,21.20
2022-11-29T15:22:17.877Z,16.10
2022-11-29T15:24:52.759Z,20.98
2022-11-29T15:27:19.931Z,21.27
2022-11-29T15:29:48.251Z,18.33
2022-11-29T15:32:26.978Z,24.60
2022-11-29T15:34:55.830Z,20.63
2022-11-29T15:37:42.552Z,22.92
2022-11-29T15:40:17.658Z,21.00
2022-11-29T15:42:50.578Z,21.65
2022-11-29T15:45:34.141Z,19.58
2022-11-29T15:48:33.403Z,23.13
2022-11-29T15:51:06.143Z,22.80
2022-11-29T15:53:38.712Z,23.10
2022-11-29T15:56:36.019Z,24.52
2022-11-29T15:59:08.902Z,19.55
2022-11-29T16:01:37.404Z,23.90
2022-11-29T16:04:04.049Z,22.42
2022-11-29T16:06:36.038Z,23.92
2022-11-29T16:09:03.064Z,21.02
2022-11-29T16:11:31.624Z,20.88
2022-11-29T16:14:12.813Z,25.37
2022-11-29T16:16:40.638Z,23.85
2022-11-29T16:19:16.956Z,27.52
2022-11-29T16:21:44.318Z,23.95
2022-11-29T16:24:14.035Z,24.02
2022-11-29T16:26:44.292Z,22.73
2022-11-29T16:29:24.725Z,22.25
2022-11-29T16:31:52.104Z,21.42
2022-11-29T16:34:24.255Z,21.20
2022-11-29T16:37:01.200Z,24.35
2022-11-29T16:39:28.192Z,26.73
2022-11-29T16:42:18.323Z,25.20
2022-11-29T16:45:03.960Z,19.27
2022-11-29T16:47:52.854Z,19.02
2022-11-29T16:50:22.241Z,20.27
2022-11-29T16:52:56.112Z,17.23
2022-11-29T16:55:23.075Z,19.40
2022-11-29T16:57:49.908Z,15.93
2022-11-29T17:00:33.218Z,23.63
2022-11-29T17:02:59.893Z,17.98
2022-11-29T17:05:27.063Z,22.10
2022-11-29T17:07:53.729Z,21.02
2022-11-29T17:10:23.957Z,20.80
2022-11-29T17:12:50.400Z,27.50
2022-11-29T17:15:16.806Z,22.75
2022-11-29T17:17:43.569Z,23.57
2022-11-29T17:20:12.117Z,22.77
2022-11-29T17:22:38.518Z,24.85
2022-11-29T17:25:05.256Z,22.40
2022-11-29T17:27:31.608Z,19.13
2022-11-29T17:29:58.003Z,18.53
2022-11-29T17:32:26.884Z,18.77
2022-11-29T17:34:53.556Z,18.73
2022-11-29T17:37:20.000Z,17.38
2022-11-29T17:39:48.330Z,18.48
2022-11-29T17:42:14.973Z,18.73
2022-11-29T17:44:41.464Z,18.52
2022-11-29T17:47:07.891Z,16.90
2022-11-29T17:49:34.263Z,22.55
2022-11-29T17:52:00.707Z,16.33
2022-11-29T17:54:27.092Z,16.33
2022-11-29T17:56:53.574Z,16.48
2022-11-29T17:59:20.374Z,18.50
2022-11-29T18:01:49.816Z,18.80
2022-11-29T18:04:16.414Z,18.55
2022-11-29T18:06:43.556Z,20.47
2022-11-29T18:09:10.878Z,21.10
2022-11-29T18:11:48.303Z,20.95
2022-11-29T18:14:27.908Z,22.50
2022-11-29T18:16:54.470Z,28.60
2022-11-29T18:19:22.358Z,24.83
2022-11-29T18:21:49.593Z,26.95
2022-11-29T18:24:16.184Z,26.00
2022-11-29T18:26:42.832Z,24.35
2022-11-29T18:29:10.038Z,28.17
2022-11-29T18:31:39.447Z,26.17
2022-11-29T18:34:09.337Z,24.65
2022-11-29T18:36:43.002Z,27.77
2022-11-29T18:39:18.353Z,29.52
2022-11-29T18:41:47.377Z,36.97
2022-11-29T18:44:15.551Z,30.07
2022-11-29T18:46:44.020Z,28.80
2022-11-29T18:49:12.976Z,32.53
2022-11-29T18:51:41.038Z,28.27
2022-11-29T18:54:07.444Z,29.85
2022-11-29T18:56:35.155Z,33.27
2022-11-29T18:59:04.821Z,33.00
2022-11-29T19:01:34.289Z,35.17
2022-11-29T19:04:01.630Z,34.22
2022-11-29T19:06:37.149Z,32.78
2022-11-29T19:09:06.315Z,32.30
2022-11-29T19:11:33.731Z,35.65
2022-11-29T19:14:03.850Z,37.50
2022-11-29T19:16:32.370Z,38.00
2022-11-29T19:18:59.835Z,37.08
2022-11-29T19:21:29.120Z,34.50
2022-11-29T19:23:58.390Z,36.20
2022-11-29T19:26:27.027Z,35.28
2022-11-29T19:28:54.131Z,34.30
2022-11-29T19:31:25.064Z,35.85
2022-11-29T19:33:52.649Z,32.13
2022-11-29T19:36:27.761Z,39.70
2022-11-29T19:38:54.838Z,34.42
2022-11-29T19:41:27.794Z,42.33
2022-11-29T19:43:56.441Z,36.67
2022-11-29T19:46:25.758Z,40.17
2022-11-29T19:48:53.785Z,46.05
2022-11-29T19:51:20.444Z,48.25
2022-11-29T19:53:47.412Z,44.00
2022-11-29T19:56:16.258Z,46.97
2022-11-29T19:58:43.664Z,42.10
2022-11-29T20:01:17.080Z,39.05
2022-11-29T20:03:44.884Z,44.67
2022-11-29T20:06:11.974Z,40.40
2022-11-29T20:08:38.509Z,43.42
2022-11-29T20:11:10.652Z,40.10
2022-11-29T20:13:38.159Z,41.42
2022-11-29T20:16:12.870Z,42.03
2022-11-29T20:18:45.741Z,37.15
2022-11-29T20:21:18.611Z,37.13
2022-11-29T20:23:44.978Z,39.37
2022-11-29T20:26:17.682Z,43.25
2022-11-29T20:28:44.658Z,45.25
2022-11-29T20:31:17.487Z,45.03
2022-11-29T20:33:45.535Z,47.88
2022-11-29T20:36:32.999Z,44.73
2022-11-29T20:39:08.363Z,40.00
2022-11-29T20:42:00.570Z,43.67
2022-11-29T20:44:37.765Z,45.90
2022-11-29T20:47:19.148Z,43.75
2022-11-29T20:49:46.315Z,43.63
2022-11-29T20:52:37.556Z,48.85
2022-11-29T20:55:05.160Z,42.72
2022-11-29T20:57:31.591Z,45.70
2022-11-29T20:59:57.945Z,46.25
2022-11-29T21:02:24.736Z,42.43
2022-11-29T21:04:51.515Z,42.90
2022-11-29T21:07:18.000Z,51.88
2022-11-29T21:09:44.948Z,51.80
2022-11-29T21:12:11.960Z,47.63
2022-11-29T21:14:38.584Z,42.00
2022-11-29T21:17:05.335Z,46.33
2022-11-29T21:19:32.003Z,39.60
2022-11-29T21:22:35.751Z,46.35
2022-11-29T21:25:14.319Z,43.08
2022-11-29T21:27:41.034Z,37.93
2022-11-29T21:30:18.931Z,40.08
2022-11-29T21:32:45.954Z,40.65
2022-11-29T21:35:12.982Z,47.78
2022-11-29T21:37:39.457Z,39.47
2022-11-29T21:40:06.602Z,39.63
2022-11-29T21:42:33.091Z,40.97
2022-11-29T21:44:59.521Z,42.15
2022-11-29T21:47:25.874Z,44.47
2022-11-29T21:49:54.199Z,47.85
2022-11-29T21:52:22.861Z,40.43
2022-11-29T21:54:50.081Z,44.00
2022-11-29T21:57:16.447Z,42.70
2022-11-29T21:59:42.815Z,41.42
2022-11-29T22:02:09.509Z,44.53
2022-11-29T22:04:35.982Z,45.73
2022-11-29T22:07:02.378Z,49.28
2022-11-29T22:09:28.870Z,43.28
2022-11-29T22:11:55.213Z,40.92
2022-11-29T22:14:21.556Z,41.00
2022-11-29T22:16:50.452Z,44.73
2022-11-29T22:19:21.788Z,48.08
2022-11-29T22:21:52.037Z,42.28
2022-11-29T22:24:20.561Z,47.83
2022-11-29T22:26:48.328Z,51.38
2022-11-29T22:29:14.969Z,44.53
2022-11-29T22:31:42.769Z,45.85
2022-11-29T22:34:09.603Z,46.70
2022-11-29T22:36:37.383Z,52.97
2022-11-29T22:39:05.240Z,47.42
2022-11-29T22:41:33.148Z,44.93
2022-11-29T22:43:59.523Z,50.42
2022-11-29T22:46:27.786Z,44.80
2022-11-29T22:48:56.148Z,44.15
2022-11-29T22:51:25.783Z,46.35
2022-11-29T22:53:54.355Z,43.50
2022-11-29T22:56:22.861Z,38.20
2022-11-29T22:58:49.832Z,38.95
2022-11-29T23:01:18.601Z,43.47
2022-11-29T23:03:53.751Z,44.45
2022-11-29T23:06:26.090Z,41.47
2022-11-29T23:08:54.714Z,37.25
2022-11-29T23:11:23.627Z,43.58
2022-11-29T23:13:50.474Z,41.55
2022-11-29T23:16:22.204Z,46.17
2022-11-29T23:18:48.885Z,48.77
2022-11-29T23:21:27.212Z,39.15
2022-11-29T23:23:56.526Z,45.25
2022-11-29T23:26:26.095Z,45.45
2022-11-29T23:28:53.644Z,43.20
2022-11-29T23:31:20.752Z,38.13
2022-11-29T23:33:47.676Z,46.72
2022-11-29T23:36:15.314Z,41.70
2022-11-29T23:38:42.411Z,44.75
2022-11-29T23:41:09.785Z,49.58
2022-11-29T23:43:38.907Z,48.37
2022-11-29T23:46:07.124Z,43.08
2022-11-29T23:48:33.573Z,43.75
2022-11-29T23:51:00.178Z,44.10
2022-11-29T23:53:26.926Z,45.08
2022-11-29T23:55:58.057Z,44.07
2022-11-29T23:58:25.217Z,41.88
